Easter Island, Chile
Current Conditions -  °F | °C
As of 9:00 PM on Monday 20 Oct 2014 (Local Time) from SCIP Reporting Station
Broken Clouds Broken Clouds  
Wind Chill: 61°   Ceiling: 3000
Heat Index: 61°   Visibility: 6mi
Dew Point: 43°   Wind: 8mph
Humidity: 52%   Direction: 110°ESE
Pressure: 30.24"   Gusts: NA
Location:  27.12°S, 109.37°W
Report Text: SCIP 210200Z 11007KT 9999 SCT020 BKN030 16/06 Q1024 WS ALL RWY NOSIG
Loading
Personal Weather Stations






























Interactive Weather Map
Tropical Storm Tracking
New forecast layout! Learn more

10-Day Weather Forecast

Advertisements
Track Severe Weather on mobile